Time;durP1;ratioP1;P1;durP2;ratioP2;P2;SDS_P1;SDS_P2;PMS_P1;PMS_P2;Temp;Humidity;BMP_temperature;BMP_pressure;BME280_temperature;BME280_humidity;BME280_pressure;Samples;Min_cycle;Max_cycle;Signal;HPM_P1;HPM_P2
2022/01/29 00:00:03;;;;;;;9.73;2.50;;;;;;;;;;4973549;28;20110;-61
2022/01/29 00:02:29;;;;;;;9.55;2.50;;;;;;;;;;4973399;28;20075;-62
2022/01/29 00:04:55;;;;;;;8.48;2.80;;;;;;;;;;4973652;28;20062;-61
2022/01/29 00:07:21;;;;;;;10.68;2.80;;;;;;;;;;4973286;28;20027;-61
2022/01/29 00:09:48;;;;;;;8.02;2.58;;;;;;;;;;4974130;28;20026;-61
2022/01/29 00:12:14;;;;;;;8.02;2.95;;;;;;;;;;4992707;28;20539;-61
2022/01/29 00:14:40;;;;;;;10.18;2.50;;;;;;;;;;4992790;28;20113;-61
2022/01/29 00:17:06;;;;;;;11.30;3.08;;;;;;;;;;4992594;28;20117;-61
2022/01/29 00:19:32;;;;;;;11.75;2.65;;;;;;;;;;4993059;28;20153;-61
2022/01/29 00:22:03;;;;;;;7.95;2.53;;;;;;;;;;4981187;28;20087;-61
2022/01/29 00:24:29;;;;;;;8.38;2.72;;;;;;;;;;4956040;28;20089;-61
2022/01/29 00:26:55;;;;;;;12.65;2.90;;;;;;;;;;4973559;28;20035;-61
2022/01/29 00:29:22;;;;;;;9.32;2.95;;;;;;;;;;4973360;28;20086;-61
2022/01/29 00:31:48;;;;;;;9.52;2.40;;;;;;;;;;4973054;28;20134;-61
2022/01/29 00:34:14;;;;;;;8.65;2.40;;;;;;;;;;4973222;28;20031;-60
2022/01/29 00:36:40;;;;;;;7.90;2.38;;;;;;;;;;4972186;28;20015;-62
2022/01/29 00:39:06;;;;;;;7.80;2.33;;;;;;;;;;4974996;28;20034;-61
2022/01/29 00:41:32;;;;;;;7.68;2.45;;;;;;;;;;4976863;28;20026;-61
2022/01/29 00:43:59;;;;;;;10.40;2.90;;;;;;;;;;4977136;28;20077;-61
2022/01/29 00:46:25;;;;;;;8.43;2.45;;;;;;;;;;4976829;28;20037;-62
2022/01/29 00:48:51;;;;;;;10.85;2.50;;;;;;;;;;4976947;28;20026;-61
2022/01/29 00:51:17;;;;;;;8.00;2.60;;;;;;;;;;4976699;28;20467;-61
2022/01/29 00:53:43;;;;;;;9.98;2.40;;;;;;;;;;4957914;28;20022;-62
2022/01/29 00:56:10;;;;;;;9.68;2.83;;;;;;;;;;4958939;28;20063;-62
2022/01/29 00:58:36;;;;;;;6.95;2.10;;;;;;;;;;4976822;28;20113;-61
2022/01/29 01:01:03;;;;;;;11.90;2.45;;;;;;;;;;4976599;28;20189;-61
2022/01/29 01:03:29;;;;;;;11.35;2.65;;;;;;;;;;4976596;28;20039;-61
2022/01/29 01:05:55;;;;;;;8.27;2.25;;;;;;;;;;4976587;28;20081;-61
2022/01/29 01:08:21;;;;;;;7.60;1.88;;;;;;;;;;4976456;28;20034;-62
2022/01/29 01:10:47;;;;;;;9.48;2.28;;;;;;;;;;4975628;28;20031;-61
2022/01/29 01:13:13;;;;;;;7.60;1.80;;;;;;;;;;4976092;28;20038;-63
2022/01/29 01:15:39;;;;;;;7.35;1.90;;;;;;;;;;4976250;28;20022;-61
2022/01/29 01:18:05;;;;;;;6.00;1.77;;;;;;;;;;4976224;28;20050;-61
2022/01/29 01:20:31;;;;;;;5.97;1.75;;;;;;;;;;4976411;28;20355;-61
2022/01/29 01:22:57;;;;;;;6.25;2.15;;;;;;;;;;4976005;28;20129;-61
2022/01/29 01:25:23;;;;;;;6.35;2.00;;;;;;;;;;4973092;28;20027;-62
2022/01/29 01:27:49;;;;;;;7.72;2.15;;;;;;;;;;4975403;28;20141;-61
2022/01/29 01:30:15;;;;;;;10.30;1.83;;;;;;;;;;4976318;28;20034;-62
2022/01/29 01:32:41;;;;;;;5.95;1.67;;;;;;;;;;4975914;28;20031;-61
2022/01/29 01:35:22;;;;;;;6.32;1.75;;;;;;;;;;4958728;28;20391;-61
2022/01/29 01:37:54;;;;;;;5.38;1.67;;;;;;;;;;4975786;28;20027;-61
2022/01/29 01:40:21;;;;;;;8.18;1.70;;;;;;;;;;4975989;28;20030;-61
2022/01/29 01:42:47;;;;;;;4.15;1.63;;;;;;;;;;4973554;28;20027;-60
2022/01/29 01:45:13;;;;;;;6.07;1.75;;;;;;;;;;4970487;28;20038;-61
2022/01/29 01:47:39;;;;;;;5.22;1.77;;;;;;;;;;4975683;28;20367;-61
2022/01/29 01:50:06;;;;;;;6.82;1.80;;;;;;;;;;4974511;28;20022;-61
2022/01/29 01:52:32;;;;;;;4.90;1.90;;;;;;;;;;4975598;28;20170;-61
2022/01/29 01:54:58;;;;;;;5.15;1.58;;;;;;;;;;4975512;28;20023;-62
2022/01/29 01:57:24;;;;;;;12.63;1.90;;;;;;;;;;4975786;28;20056;-62
2022/01/29 01:59:50;;;;;;;4.70;1.48;;;;;;;;;;4974316;28;20039;-60
2022/01/29 02:02:16;;;;;;;4.88;1.40;;;;;;;;;;4975444;28;20110;-60
2022/01/29 02:04:42;;;;;;;8.13;2.25;;;;;;;;;;4958183;28;20026;-61
2022/01/29 02:07:09;;;;;;;5.55;1.70;;;;;;;;;;4975582;28;20073;-60
2022/01/29 02:09:37;;;;;;;6.10;1.60;;;;;;;;;;4957968;28;20042;-61
2022/01/29 02:12:04;;;;;;;6.22;1.85;;;;;;;;;;4975279;28;20062;-61
2022/01/29 02:14:32;;;;;;;5.63;1.88;;;;;;;;;;4975432;28;20022;-60
2022/01/29 02:16:59;;;;;;;8.23;2.33;;;;;;;;;;4975029;28;20050;-60
2022/01/29 02:19:25;;;;;;;9.45;2.22;;;;;;;;;;4958109;28;20423;-60
2022/01/29 02:21:52;;;;;;;14.32;2.70;;;;;;;;;;4975073;28;20418;-58
2022/01/29 02:24:17;;;;;;;17.35;2.75;;;;;;;;;;4957462;28;20459;-58
2022/01/29 02:26:44;;;;;;;7.53;2.25;;;;;;;;;;4965994;28;20050;-58
2022/01/29 02:29:10;;;;;;;7.45;2.00;;;;;;;;;;4975235;28;20027;-59
2022/01/29 02:31:36;;;;;;;11.02;2.13;;;;;;;;;;4974822;28;20676;-59
2022/01/29 02:34:04;;;;;;;7.75;1.95;;;;;;;;;;4957592;28;20065;-61
2022/01/29 02:36:29;;;;;;;9.60;2.20;;;;;;;;;;4957893;28;20093;-59
2022/01/29 02:38:55;;;;;;;9.98;2.15;;;;;;;;;;4974862;28;20026;-59
2022/01/29 02:41:23;;;;;;;3.78;1.40;;;;;;;;;;4974747;28;20022;-59
2022/01/29 02:43:51;;;;;;;8.85;1.75;;;;;;;;;;4975209;28;20109;-59
2022/01/29 02:48:52;;;;;;;5.30;1.58;;;;;;;;;;4974604;28;20042;-61
2022/01/29 02:51:18;;;;;;;6.60;2.03;;;;;;;;;;4974466;28;20027;-60
2022/01/29 02:53:44;;;;;;;5.80;1.40;;;;;;;;;;4974577;28;20054;-59
2022/01/29 02:56:10;;;;;;;5.65;1.55;;;;;;;;;;4974162;28;20114;-59
2022/01/29 02:58:37;;;;;;;5.85;1.58;;;;;;;;;;4957495;28;20117;-59
2022/01/29 03:01:03;;;;;;;5.68;1.70;;;;;;;;;;4973964;28;20109;-60
2022/01/29 03:03:29;;;;;;;8.27;1.77;;;;;;;;;;4973670;28;20039;-60
2022/01/29 03:05:55;;;;;;;3.75;1.42;;;;;;;;;;4974312;28;20065;-60
2022/01/29 03:08:21;;;;;;;7.28;1.42;;;;;;;;;;4974773;28;20031;-60
2022/01/29 03:10:47;;;;;;;4.13;1.40;;;;;;;;;;4974793;28;20031;-61
2022/01/29 03:13:13;;;;;;;3.90;1.40;;;;;;;;;;4957047;28;20062;-60
2022/01/29 03:15:40;;;;;;;5.13;1.30;;;;;;;;;;4974172;28;20031;-59
2022/01/29 03:18:06;;;;;;;6.30;1.65;;;;;;;;;;4973820;28;20407;-59
2022/01/29 03:20:31;;;;;;;4.85;1.55;;;;;;;;;;4973325;28;20037;-59
2022/01/29 03:22:58;;;;;;;4.90;1.42;;;;;;;;;;4973787;28;20042;-59
2022/01/29 03:25:24;;;;;;;4.03;1.42;;;;;;;;;;4956457;28;20813;-60
2022/01/29 03:27:50;;;;;;;5.28;1.55;;;;;;;;;;4973779;28;20541;-59
2022/01/29 03:30:16;;;;;;;5.07;1.35;;;;;;;;;;4974051;28;20069;-59
2022/01/29 03:32:42;;;;;;;4.28;1.50;;;;;;;;;;4973944;28;20035;-60
2022/01/29 03:35:09;;;;;;;3.80;1.50;;;;;;;;;;4970414;28;20019;-59
2022/01/29 03:37:35;;;;;;;3.20;1.30;;;;;;;;;;4973641;28;20038;-60
2022/01/29 03:40:03;;;;;;;3.40;1.30;;;;;;;;;;4956741;28;20023;-60
2022/01/29 03:42:34;;;;;;;5.18;1.50;;;;;;;;;;4973595;28;20034;-60
2022/01/29 03:45:00;;;;;;;6.93;1.58;;;;;;;;;;4973772;28;20553;-59
2022/01/29 03:47:26;;;;;;;3.88;1.17;;;;;;;;;;4974084;28;20070;-59
2022/01/29 03:49:52;;;;;;;3.42;1.45;;;;;;;;;;4973719;28;20059;-59
2022/01/29 03:52:18;;;;;;;3.97;1.77;;;;;;;;;;4972594;28;20030;-59
2022/01/29 03:54:44;;;;;;;4.13;1.27;;;;;;;;;;4972959;28;20151;-59
2022/01/29 03:57:10;;;;;;;4.50;1.48;;;;;;;;;;4973122;28;20114;-60
2022/01/29 03:59:36;;;;;;;2.58;1.10;;;;;;;;;;4973332;28;20578;-61
2022/01/29 04:02:02;;;;;;;4.05;1.45;;;;;;;;;;4973391;28;20110;-59
2022/01/29 04:04:28;;;;;;;3.95;1.67;;;;;;;;;;4973440;28;20109;-61
2022/01/29 04:06:59;;;;;;;11.77;1.92;;;;;;;;;;4973772;28;20154;-59
2022/01/29 04:09:25;;;;;;;2.88;1.10;;;;;;;;;;4973628;28;20026;-61
2022/01/29 04:11:51;;;;;;;6.40;1.55;;;;;;;;;;4973677;28;20039;-59
2022/01/29 04:14:19;;;;;;;5.03;1.63;;;;;;;;;;4975827;28;20344;-60
2022/01/29 04:16:45;;;;;;;4.57;1.30;;;;;;;;;;4977313;28;20039;-60
2022/01/29 04:19:11;;;;;;;3.53;1.38;;;;;;;;;;4977490;28;20033;-64
2022/01/29 04:21:38;;;;;;;5.10;1.27;;;;;;;;;;4959819;28;20398;-60
2022/01/29 04:24:04;;;;;;;12.38;1.60;;;;;;;;;;4976363;28;20065;-59
2022/01/29 04:26:34;;;;;;;3.17;1.30;;;;;;;;;;4976769;28;20451;-61
2022/01/29 04:29:02;;;;;;;4.28;1.58;;;;;;;;;;4976681;28;20033;-60
2022/01/29 04:31:36;;;;;;;4.13;1.45;;;;;;;;;;4977269;28;20050;-60
2022/01/29 04:34:02;;;;;;;4.47;1.30;;;;;;;;;;4977694;28;20027;-59
2022/01/29 04:36:28;;;;;;;4.20;1.30;;;;;;;;;;4977331;28;20577;-60
2022/01/29 04:38:54;;;;;;;5.88;1.27;;;;;;;;;;4974510;28;20748;-60
2022/01/29 04:41:21;;;;;;;5.97;1.70;;;;;;;;;;4972634;28;20039;-60
2022/01/29 04:43:47;;;;;;;7.65;1.25;;;;;;;;;;4976972;28;20034;-60
2022/01/29 04:46:13;;;;;;;5.30;1.30;;;;;;;;;;4976963;28;20374;-59
2022/01/29 04:48:39;;;;;;;7.45;1.40;;;;;;;;;;4959630;28;20026;-59
2022/01/29 04:51:05;;;;;;;5.53;1.50;;;;;;;;;;4977055;28;20367;-59
2022/01/29 04:53:31;;;;;;;4.45;1.40;;;;;;;;;;4976333;28;20038;-60
2022/01/29 04:55:57;;;;;;;3.53;1.40;;;;;;;;;;4975467;28;20414;-60
2022/01/29 04:58:23;;;;;;;2.95;1.15;;;;;;;;;;4975504;28;20034;-60
2022/01/29 05:00:49;;;;;;;4.00;1.42;;;;;;;;;;4976541;28;20031;-59
2022/01/29 05:03:16;;;;;;;7.40;1.52;;;;;;;;;;4976627;28;20474;-60
2022/01/29 05:05:43;;;;;;;5.13;1.33;;;;;;;;;;4976615;28;20056;-60
2022/01/29 05:08:11;;;;;;;5.07;1.02;;;;;;;;;;4976629;28;20033;-60
2022/01/29 05:10:37;;;;;;;3.53;1.40;;;;;;;;;;4976959;28;20057;-60
2022/01/29 05:13:13;;;;;;;5.70;1.20;;;;;;;;;;4958820;28;20035;-60
2022/01/29 05:29:05;;;;;;;4.68;1.40;;;;;;;;;;4975918;28;20042;-59
2022/01/29 05:31:31;;;;;;;7.30;1.20;;;;;;;;;;4975074;28;20118;-62
2022/01/29 05:33:57;;;;;;;3.45;1.10;;;;;;;;;;4976169;28;20027;-60
2022/01/29 05:36:23;;;;;;;5.50;1.35;;;;;;;;;;4976059;28;20053;-60
2022/01/29 05:38:49;;;;;;;6.85;1.10;;;;;;;;;;4976083;28;20058;-59
2022/01/29 05:41:15;;;;;;;5.72;1.20;;;;;;;;;;4975771;28;20081;-61
2022/01/29 05:43:43;;;;;;;5.90;1.30;;;;;;;;;;4975779;28;20034;-60
2022/01/29 05:46:09;;;;;;;5.50;1.25;;;;;;;;;;4975082;28;20078;-59
2022/01/29 05:48:35;;;;;;;3.83;1.33;;;;;;;;;;4975674;28;20062;-59
2022/01/29 05:51:01;;;;;;;7.15;1.70;;;;;;;;;;4958417;28;20062;-60
2022/01/29 05:53:27;;;;;;;5.07;1.20;;;;;;;;;;4975589;28;20026;-60
2022/01/29 05:55:53;;;;;;;6.13;1.20;;;;;;;;;;4975291;28;20105;-60
2022/01/29 05:58:19;;;;;;;4.85;1.33;;;;;;;;;;4975373;28;20019;-60
2022/01/29 06:00:45;;;;;;;5.32;1.38;;;;;;;;;;4977202;28;20049;-61
2022/01/29 06:03:11;;;;;;;5.20;1.42;;;;;;;;;;4976766;28;20034;-60
2022/01/29 06:05:37;;;;;;;6.93;1.50;;;;;;;;;;4958202;28;20023;-61
2022/01/29 06:08:04;;;;;;;6.68;1.77;;;;;;;;;;4975751;28;20035;-61
2022/01/29 06:10:31;;;;;;;4.70;1.45;;;;;;;;;;4982133;28;20018;-64
2022/01/29 06:13:14;;;;;;;3.28;1.13;;;;;;;;;;4994559;28;20086;-60
2022/01/29 06:15:43;;;;;;;10.00;2.20;;;;;;;;;;4967692;28;20027;-62
2022/01/29 06:18:14;;;;;;;10.93;1.60;;;;;;;;;;4954560;28;20076;-60
2022/01/29 06:20:41;;;;;;;4.95;1.55;;;;;;;;;;4965209;28;20110;-60
2022/01/29 06:23:09;;;;;;;5.32;1.83;;;;;;;;;;4976257;28;20121;-62
2022/01/29 06:25:35;;;;;;;10.35;1.85;;;;;;;;;;4994322;28;20023;-62
2022/01/29 06:28:01;;;;;;;4.55;1.40;;;;;;;;;;4994167;28;20028;-60
2022/01/29 06:30:27;;;;;;;6.30;1.50;;;;;;;;;;4994402;28;20030;-62
2022/01/29 06:32:53;;;;;;;8.18;1.70;;;;;;;;;;4989197;28;20041;-61
2022/01/29 06:35:18;;;;;;;4.63;1.40;;;;;;;;;;4974735;28;20049;-61
2022/01/29 06:37:44;;;;;;;6.55;1.33;;;;;;;;;;4974209;28;20039;-60
2022/01/29 06:40:11;;;;;;;5.47;1.50;;;;;;;;;;4974620;28;20031;-60
2022/01/29 06:42:37;;;;;;;3.83;1.50;;;;;;;;;;4974674;28;20034;-60
2022/01/29 06:45:03;;;;;;;6.28;1.60;;;;;;;;;;4974685;28;20418;-59
2022/01/29 06:47:29;;;;;;;26.25;1.85;;;;;;;;;;4974631;28;20027;-61
2022/01/29 06:49:55;;;;;;;19.48;1.70;;;;;;;;;;4973118;28;20058;-60
2022/01/29 06:52:22;;;;;;;11.48;1.67;;;;;;;;;;4975409;28;20038;-60
2022/01/29 06:54:48;;;;;;;7.22;1.77;;;;;;;;;;4977647;28;20029;-60
2022/01/29 06:57:14;;;;;;;9.68;1.70;;;;;;;;;;4982276;28;20038;-60
2022/01/29 06:59:40;;;;;;;11.40;1.55;;;;;;;;;;4980625;28;20023;-60
2022/01/29 07:02:06;;;;;;;7.05;1.38;;;;;;;;;;4987546;28;20109;-61
2022/01/29 07:04:32;;;;;;;7.63;2.05;;;;;;;;;;4978449;28;20031;-60
2022/01/29 07:06:58;;;;;;;5.10;1.40;;;;;;;;;;4976956;28;20046;-61
2022/01/29 07:09:24;;;;;;;5.88;1.20;;;;;;;;;;4985413;28;20030;-60
2022/01/29 07:11:56;;;;;;;13.15;2.05;;;;;;;;;;4962691;28;20443;-62
2022/01/29 07:14:22;;;;;;;8.95;1.58;;;;;;;;;;4977179;28;20105;-63
2022/01/29 07:16:48;;;;;;;5.82;1.60;;;;;;;;;;4984156;28;20043;-60
2022/01/29 07:19:14;;;;;;;6.82;1.67;;;;;;;;;;4962251;28;20038;-61
2022/01/29 07:21:40;;;;;;;6.35;1.85;;;;;;;;;;4962658;28;20030;-61
2022/01/29 07:24:06;;;;;;;8.90;1.45;;;;;;;;;;4991353;28;20180;-61
2022/01/29 07:26:33;;;;;;;14.63;1.77;;;;;;;;;;4982180;28;20093;-60
2022/01/29 07:28:59;;;;;;;6.75;1.40;;;;;;;;;;4973538;28;20030;-60
2022/01/29 07:31:25;;;;;;;10.35;1.63;;;;;;;;;;4961943;28;20037;-60
2022/01/29 07:33:51;;;;;;;5.90;1.38;;;;;;;;;;4965375;28;20030;-60
2022/01/29 07:36:17;;;;;;;6.22;1.55;;;;;;;;;;4980172;28;20039;-61
2022/01/29 07:38:43;;;;;;;6.18;1.50;;;;;;;;;;4976602;28;20466;-60
2022/01/29 07:41:09;;;;;;;7.35;1.85;;;;;;;;;;4986536;28;20034;-61
2022/01/29 07:43:35;;;;;;;7.30;1.27;;;;;;;;;;4978578;28;20054;-61
2022/01/29 07:46:01;;;;;;;6.50;1.40;;;;;;;;;;4983435;28;20014;-61
2022/01/29 07:48:27;;;;;;;4.30;1.15;;;;;;;;;;4986292;28;20022;-66
2022/01/29 07:50:53;;;;;;;8.68;1.50;;;;;;;;;;4981635;28;20098;-66
2022/01/29 07:53:19;;;;;;;7.30;1.73;;;;;;;;;;4979505;28;20689;-62
2022/01/29 07:55:45;;;;;;;6.47;1.20;;;;;;;;;;4987795;28;20105;-60
2022/01/29 07:58:11;;;;;;;8.50;1.38;;;;;;;;;;4982453;28;20148;-67
2022/01/29 08:00:37;;;;;;;12.55;1.75;;;;;;;;;;4959164;28;20028;-59
2022/01/29 08:03:04;;;;;;;9.98;1.42;;;;;;;;;;4977627;28;20143;-62
2022/01/29 08:05:30;;;;;;;23.23;1.50;;;;;;;;;;4973218;28;20467;-60
2022/01/29 08:07:56;;;;;;;7.43;1.20;;;;;;;;;;4972280;28;20734;-60
2022/01/29 08:10:22;;;;;;;11.73;1.52;;;;;;;;;;4978464;28;20054;-60
2022/01/29 08:12:48;;;;;;;11.93;1.40;;;;;;;;;;4972989;28;20026;-60
2022/01/29 08:15:14;;;;;;;7.20;1.50;;;;;;;;;;4973579;28;20035;-60
2022/01/29 08:17:40;;;;;;;12.90;1.20;;;;;;;;;;4953322;28;20439;-60
2022/01/29 08:20:06;;;;;;;9.75;1.60;;;;;;;;;;4953753;29;20039;-60
2022/01/29 08:22:32;;;;;;;9.00;1.20;;;;;;;;;;4953828;28;20114;-60
2022/01/29 08:24:59;;;;;;;6.22;1.20;;;;;;;;;;4953873;29;20110;-60
2022/01/29 08:27:25;;;;;;;9.98;1.30;;;;;;;;;;4954300;28;20111;-60
2022/01/29 08:29:51;;;;;;;5.05;1.50;;;;;;;;;;4953871;28;20027;-60
2022/01/29 08:32:17;;;;;;;8.85;1.13;;;;;;;;;;4936196;28;20031;-63
2022/01/29 08:34:46;;;;;;;4.78;1.42;;;;;;;;;;4953622;29;20038;-60
2022/01/29 08:37:12;;;;;;;8.38;1.30;;;;;;;;;;4953826;28;20023;-61
2022/01/29 08:39:39;;;;;;;5.63;1.20;;;;;;;;;;4964056;28;20109;-61
2022/01/29 08:42:05;;;;;;;4.68;1.20;;;;;;;;;;4964940;28;20037;-60
2022/01/29 08:44:31;;;;;;;6.70;1.27;;;;;;;;;;4981576;28;20018;-60
2022/01/29 08:46:57;;;;;;;5.68;1.20;;;;;;;;;;4983600;28;20031;-65
2022/01/29 08:49:23;;;;;;;9.88;1.65;;;;;;;;;;4980590;28;20492;-64
2022/01/29 08:51:49;;;;;;;7.53;1.08;;;;;;;;;;4981273;28;20030;-65
2022/01/29 08:54:15;;;;;;;9.50;1.42;;;;;;;;;;4981873;28;20108;-65
2022/01/29 08:56:41;;;;;;;9.25;1.30;;;;;;;;;;4969445;28;20042;-61
2022/01/29 08:59:07;;;;;;;5.60;1.13;;;;;;;;;;4977283;28;20087;-60
2022/01/29 09:01:33;;;;;;;12.48;1.35;;;;;;;;;;4970286;28;20026;-61
2022/01/29 09:04:00;;;;;;;7.68;1.20;;;;;;;;;;4984440;28;20470;-60
2022/01/29 09:06:26;;;;;;;6.72;1.48;;;;;;;;;;4969728;28;20117;-64
2022/01/29 09:08:52;;;;;;;5.57;1.17;;;;;;;;;;4986974;28;20513;-64
2022/01/29 09:11:20;;;;;;;13.25;1.60;;;;;;;;;;4969251;28;20039;-62
2022/01/29 09:13:46;;;;;;;7.22;1.17;;;;;;;;;;4984120;28;20118;-62
2022/01/29 09:16:12;;;;;;;6.68;1.17;;;;;;;;;;4988533;28;20087;-61
2022/01/29 09:18:38;;;;;;;12.95;1.67;;;;;;;;;;4984817;28;20046;-60
2022/01/29 09:21:05;;;;;;;12.98;1.52;;;;;;;;;;4983262;28;20030;-61
2022/01/29 09:23:31;;;;;;;10.55;1.25;;;;;;;;;;4986140;28;20375;-61
2022/01/29 09:25:57;;;;;;;8.35;1.13;;;;;;;;;;4970510;28;20050;-60
2022/01/29 09:28:23;;;;;;;13.10;1.27;;;;;;;;;;4986312;28;20090;-61
2022/01/29 09:30:49;;;;;;;13.55;1.25;;;;;;;;;;4983322;28;20854;-61
2022/01/29 09:33:16;;;;;;;12.82;1.52;;;;;;;;;;4982812;28;20113;-62
2022/01/29 09:35:42;;;;;;;10.73;1.50;;;;;;;;;;4983011;28;20377;-64
2022/01/29 09:38:11;;;;;;;15.85;1.77;;;;;;;;;;4981710;28;20062;-63
2022/01/29 09:40:38;;;;;;;11.02;1.75;;;;;;;;;;4984160;28;20027;-62
2022/01/29 09:43:06;;;;;;;12.45;1.17;;;;;;;;;;4986623;28;20069;-60
2022/01/29 09:45:33;;;;;;;12.65;1.63;;;;;;;;;;4979535;28;20034;-61
2022/01/29 09:48:02;;;;;;;11.70;1.40;;;;;;;;;;4981422;28;20055;-59
2022/01/29 09:50:33;;;;;;;12.75;1.50;;;;;;;;;;4987328;28;20029;-60
2022/01/29 09:53:00;;;;;;;11.85;1.45;;;;;;;;;;4966596;28;20062;-59
2022/01/29 09:55:26;;;;;;;7.10;1.50;;;;;;;;;;4984330;28;20037;-59
2022/01/29 09:57:56;;;;;;;4.18;1.10;;;;;;;;;;4988944;28;20054;-60
2022/01/29 10:00:22;;;;;;;12.07;1.38;;;;;;;;;;4983550;28;20034;-60
2022/01/29 10:03:21;;;;;;;11.18;1.50;;;;;;;;;;4977467;28;20039;-60
2022/01/29 10:05:48;;;;;;;5.63;1.60;;;;;;;;;;4955095;28;20051;-63
2022/01/29 10:08:15;;;;;;;11.15;1.27;;;;;;;;;;4982793;28;20490;-63
2022/01/29 10:10:43;;;;;;;11.45;1.50;;;;;;;;;;4982279;28;20026;-62
2022/01/29 10:13:24;;;;;;;9.52;1.33;;;;;;;;;;4994609;28;20034;-62
2022/01/29 10:15:51;;;;;;;19.60;1.77;;;;;;;;;;4994720;28;20034;-62
2022/01/29 10:18:21;;;;;;;16.67;1.83;;;;;;;;;;4978264;28;20141;-61
2022/01/29 10:20:47;;;;;;;13.60;1.48;;;;;;;;;;4974951;28;20023;-62
2022/01/29 10:23:13;;;;;;;7.57;1.70;;;;;;;;;;4972969;28;20038;-62
2022/01/29 10:25:43;;;;;;;6.28;1.63;;;;;;;;;;4974748;28;20034;-62
2022/01/29 10:28:16;;;;;;;18.35;1.75;;;;;;;;;;4975229;28;20034;-62
2022/01/29 10:30:51;;;;;;;5.38;1.30;;;;;;;;;;4974835;28;20074;-62
2022/01/29 10:33:18;;;;;;;4.13;1.05;;;;;;;;;;4975029;28;20031;-62
2022/01/29 10:35:44;;;;;;;10.82;1.27;;;;;;;;;;4974281;28;20054;-62
2022/01/29 10:38:11;;;;;;;5.90;1.20;;;;;;;;;;4974729;28;20157;-61
2022/01/29 10:40:38;;;;;;;8.38;1.30;;;;;;;;;;4957160;28;20446;-62
2022/01/29 10:43:09;;;;;;;8.32;1.30;;;;;;;;;;4974390;28;20537;-62
2022/01/29 10:45:36;;;;;;;9.40;1.10;;;;;;;;;;4974475;28;20021;-62
2022/01/29 10:48:05;;;;;;;4.25;1.00;;;;;;;;;;4973289;28;20109;-62
2022/01/29 10:50:31;;;;;;;5.32;1.00;;;;;;;;;;4974531;28;20473;-62
2022/01/29 10:52:57;;;;;;;6.65;1.42;;;;;;;;;;4974421;28;20461;-62
2022/01/29 10:55:23;;;;;;;4.72;1.25;;;;;;;;;;4974525;28;20035;-62
2022/01/29 10:57:49;;;;;;;3.05;1.10;;;;;;;;;;4974469;28;20034;-62
2022/01/29 11:00:20;;;;;;;4.70;1.20;;;;;;;;;;4957150;28;20057;-63
2022/01/29 11:02:46;;;;;;;3.40;1.00;;;;;;;;;;4974501;28;20066;-62
2022/01/29 11:05:13;;;;;;;4.65;1.27;;;;;;;;;;4966729;28;20481;-63
2022/01/29 11:07:41;;;;;;;4.63;1.00;;;;;;;;;;4974209;28;20422;-63
2022/01/29 11:10:08;;;;;;;5.95;1.50;;;;;;;;;;4977511;28;20365;-62
2022/01/29 11:12:36;;;;;;;2.42;1.10;;;;;;;;;;4993454;28;20578;-62
2022/01/29 11:15:03;;;;;;;5.93;1.33;;;;;;;;;;4993752;28;20033;-62
2022/01/29 11:17:30;;;;;;;5.90;1.38;;;;;;;;;;4983241;28;20042;-63
2022/01/29 11:19:56;;;;;;;6.82;1.52;;;;;;;;;;4974107;28;20031;-62
2022/01/29 11:22:23;;;;;;;4.80;1.25;;;;;;;;;;4963261;28;20573;-62
2022/01/29 11:24:50;;;;;;;4.18;1.27;;;;;;;;;;4974223;28;20062;-62
2022/01/29 11:27:19;;;;;;;3.22;1.10;;;;;;;;;;4983261;28;20145;-61
2022/01/29 11:29:56;;;;;;;4.45;1.02;;;;;;;;;;4992614;28;20022;-59
2022/01/29 11:32:22;;;;;;;8.32;1.50;;;;;;;;;;4993035;28;20023;-62
2022/01/29 11:35:07;;;;;;;4.68;1.00;;;;;;;;;;4992732;28;20478;-60
2022/01/29 11:37:54;;;;;;;4.28;1.10;;;;;;;;;;4993143;28;20021;-60
2022/01/29 11:40:21;;;;;;;7.95;1.50;;;;;;;;;;4975397;28;20086;-60
2022/01/29 11:42:56;;;;;;;7.72;1.25;;;;;;;;;;4975335;28;20038;-61
2022/01/29 11:45:42;;;;;;;6.45;1.35;;;;;;;;;;4973758;28;20042;-62
2022/01/29 11:48:20;;;;;;;7.07;1.13;;;;;;;;;;4967613;28;20505;-60
2022/01/29 11:50:47;;;;;;;16.27;1.25;;;;;;;;;;4972841;28;20174;-61
2022/01/29 11:53:15;;;;;;;4.90;1.27;;;;;;;;;;4973038;28;20063;-62
2022/01/29 11:55:44;;;;;;;7.28;1.27;;;;;;;;;;4972518;28;20521;-62
2022/01/29 11:58:17;;;;;;;5.05;1.17;;;;;;;;;;4975046;28;20036;-61
2022/01/29 12:00:48;;;;;;;9.68;1.23;;;;;;;;;;4973332;28;20027;-60
2022/01/29 12:03:45;;;;;;;5.05;1.25;;;;;;;;;;4963286;28;20070;-60
2022/01/29 12:09:07;;;;;;;13.73;1.58;;;;;;;;;;4980603;28;20043;-61
2022/01/29 12:11:33;;;;;;;;;;;;;;;;;;4950211;28;20372;-61
2022/01/29 12:14:15;;;;;;;8.35;1.63;;;;;;;;;;4965230;28;20424;-62
2022/01/29 12:16:50;;;;;;;7.30;1.30;;;;;;;;;;4987581;28;20482;-62
2022/01/29 12:19:39;;;;;;;9.80;1.33;;;;;;;;;;4992837;28;20360;-60
2022/01/29 12:22:10;;;;;;;7.00;1.20;;;;;;;;;;4992556;28;20173;-61
2022/01/29 12:24:36;;;;;;;4.95;1.20;;;;;;;;;;4972945;28;20065;-59
2022/01/29 12:27:03;;;;;;;10.35;1.48;;;;;;;;;;4973433;28;20486;-60
2022/01/29 12:29:29;;;;;;;12.85;1.15;;;;;;;;;;4973428;28;20049;-59
2022/01/29 12:31:58;;;;;;;7.18;1.30;;;;;;;;;;4972960;28;20483;-64
2022/01/29 12:34:25;;;;;;;5.53;1.30;;;;;;;;;;4973480;28;20035;-65
2022/01/29 12:36:51;;;;;;;15.02;1.75;;;;;;;;;;4962403;28;20422;-63
2022/01/29 12:39:22;;;;;;;7.40;1.30;;;;;;;;;;4962867;28;20479;-65
2022/01/29 12:42:03;;;;;;;22.48;2.10;;;;;;;;;;4976885;28;20475;-59
2022/01/29 12:44:29;;;;;;;15.20;1.30;;;;;;;;;;4993361;28;20034;-61
2022/01/29 12:46:55;;;;;;;12.38;1.63;;;;;;;;;;4996612;28;20106;-60
2022/01/29 12:49:21;;;;;;;14.32;1.42;;;;;;;;;;4995597;28;20070;-60
2022/01/29 12:51:52;;;;;;;13.27;1.50;;;;;;;;;;4995225;28;20030;-60
2022/01/29 12:54:19;;;;;;;9.95;1.88;;;;;;;;;;4976612;28;20069;-62
2022/01/29 12:56:45;;;;;;;7.90;1.52;;;;;;;;;;4976193;28;20127;-62
2022/01/29 12:59:12;;;;;;;10.57;1.30;;;;;;;;;;4976470;28;20467;-59
2022/01/29 13:01:39;;;;;;;10.70;1.60;;;;;;;;;;4976667;28;20106;-59
2022/01/29 13:04:10;;;;;;;8.50;1.45;;;;;;;;;;4976944;28;20126;-59
2022/01/29 13:06:36;;;;;;;9.02;1.45;;;;;;;;;;4976928;28;20100;-60
2022/01/29 13:09:37;;;;;;;6.13;1.40;;;;;;;;;;4976499;28;20035;-60
2022/01/29 13:12:04;;;;;;;7.45;1.55;;;;;;;;;;4972285;28;20027;-62
2022/01/29 13:14:31;;;;;;;17.05;2.88;;;;;;;;;;4969215;28;20066;-61
2022/01/29 13:16:58;;;;;;;18.63;3.92;;;;;;;;;;4976346;28;20042;-59
2022/01/29 13:19:25;;;;;;;15.52;3.70;;;;;;;;;;4976356;28;20106;-59
2022/01/29 13:21:52;;;;;;;17.38;3.20;;;;;;;;;;4976301;28;20035;-60
2022/01/29 13:24:28;;;;;;;12.57;3.10;;;;;;;;;;4976093;28;20053;-60
2022/01/29 13:27:02;;;;;;;18.42;3.63;;;;;;;;;;4976565;28;20042;-59
2022/01/29 13:29:33;;;;;;;13.93;2.80;;;;;;;;;;4975836;28;20030;-64
2022/01/29 13:31:59;;;;;;;14.25;2.92;;;;;;;;;;4968869;28;20038;-59
2022/01/29 13:34:32;;;;;;;13.93;2.78;;;;;;;;;;4975919;28;20023;-61
2022/01/29 13:36:58;;;;;;;10.85;2.00;;;;;;;;;;4976267;28;20109;-60
2022/01/29 13:39:28;;;;;;;13.30;2.55;;;;;;;;;;4975599;28;20065;-59
2022/01/29 13:42:06;;;;;;;13.52;2.83;;;;;;;;;;4976114;28;20031;-60
2022/01/29 13:44:32;;;;;;;12.05;2.40;;;;;;;;;;4976098;28;20038;-59
2022/01/29 13:47:09;;;;;;;16.42;2.17;;;;;;;;;;4975766;28;20387;-60
2022/01/29 13:49:36;;;;;;;11.52;2.20;;;;;;;;;;4967527;28;20031;-60
2022/01/29 13:52:12;;;;;;;10.48;1.80;;;;;;;;;;4975290;28;20505;-60
2022/01/29 13:54:38;;;;;;;8.50;1.88;;;;;;;;;;4975698;28;20467;-61
2022/01/29 13:57:06;;;;;;;13.15;2.15;;;;;;;;;;4975694;28;20018;-60
2022/01/29 13:59:32;;;;;;;10.90;1.80;;;;;;;;;;4972169;28;20027;-61
2022/01/29 14:02:04;;;;;;;10.77;1.95;;;;;;;;;;4975185;28;20447;-60
2022/01/29 14:04:40;;;;;;;13.05;1.95;;;;;;;;;;4975481;28;20041;-61
2022/01/29 14:07:11;;;;;;;14.45;2.05;;;;;;;;;;4975547;28;20105;-60
2022/01/29 14:09:47;;;;;;;6.85;1.65;;;;;;;;;;4973983;28;20031;-62
2022/01/29 14:12:17;;;;;;;5.95;1.70;;;;;;;;;;4975329;28;20019;-60
2022/01/29 14:14:51;;;;;;;9.05;2.00;;;;;;;;;;4975293;28;20054;-59
2022/01/29 14:17:23;;;;;;;9.02;2.17;;;;;;;;;;4972983;28;20141;-60
2022/01/29 14:19:54;;;;;;;7.90;1.55;;;;;;;;;;4975428;28;20189;-60
2022/01/29 14:22:21;;;;;;;13.30;2.50;;;;;;;;;;4975199;28;20387;-62
2022/01/29 14:24:48;;;;;;;13.98;1.90;;;;;;;;;;4975345;28;20031;-63
2022/01/29 14:27:14;;;;;;;11.05;2.30;;;;;;;;;;4975342;28;20026;-62
2022/01/29 14:29:41;;;;;;;16.13;2.05;;;;;;;;;;4957677;28;20031;-59
2022/01/29 14:32:07;;;;;;;14.57;2.22;;;;;;;;;;4975050;28;20042;-60
2022/01/29 14:34:34;;;;;;;9.00;1.88;;;;;;;;;;4974633;28;20027;-60
2022/01/29 14:37:00;;;;;;;11.95;1.80;;;;;;;;;;4971849;28;20015;-59
2022/01/29 14:39:27;;;;;;;9.05;2.08;;;;;;;;;;4958211;28;20054;-59
2022/01/29 14:41:53;;;;;;;11.43;2.05;;;;;;;;;;4957084;28;20112;-62
2022/01/29 14:44:19;;;;;;;13.55;2.10;;;;;;;;;;4974699;28;20094;-60
2022/01/29 14:46:45;;;;;;;11.80;2.15;;;;;;;;;;4978687;28;20023;-60
2022/01/29 14:49:11;;;;;;;8.25;1.70;;;;;;;;;;4989893;28;20033;-61
2022/01/29 14:51:41;;;;;;;8.48;1.80;;;;;;;;;;4991813;28;20030;-60
2022/01/29 14:54:07;;;;;;;9.80;2.08;;;;;;;;;;4975043;28;20035;-62
2022/01/29 14:56:34;;;;;;;12.23;2.42;;;;;;;;;;4973325;28;20106;-61
2022/01/29 14:59:00;;;;;;;9.43;2.28;;;;;;;;;;4974019;28;20761;-63
2022/01/29 15:01:26;;;;;;;13.88;1.92;;;;;;;;;;4974468;28;20062;-62